Time;durP1;ratioP1;P1;durP2;ratioP2;P2;SDS_P1;SDS_P2;PMS_P1;PMS_P2;Temp;Humidity;BMP_temperature;BMP_pressure;BME280_temperature;BME280_humidity;BME280_pressure;Samples;Min_cycle;Max_cycle;Signal;HPM_P1;HPM_P2
2023/03/07 00:01:51;;;;;;;29.05;3.75;;;;;;;;;;5024021;28;20052;-70
2023/03/07 00:04:16;;;;;;;25.67;2.80;;;;;;;;;;5023948;28;20030;-68
2023/03/07 00:06:46;;;;;;;35.65;3.97;;;;;;;;;;5024282;28;20111;-68
2023/03/07 00:09:12;;;;;;;17.58;3.17;;;;;;;;;;5022050;28;20405;-69
2023/03/07 00:11:37;;;;;;;22.95;3.05;;;;;;;;;;5024156;28;20048;-67
2023/03/07 00:14:05;;;;;;;21.38;3.00;;;;;;;;;;5023559;28;20060;-68
2023/03/07 00:16:33;;;;;;;22.55;2.63;;;;;;;;;;5005642;28;20548;-69
2023/03/07 00:18:59;;;;;;;22.60;2.10;;;;;;;;;;5022463;28;20037;-69
2023/03/07 00:21:30;;;;;;;22.45;3.00;;;;;;;;;;5022202;28;20098;-69
2023/03/07 00:23:55;;;;;;;18.45;3.03;;;;;;;;;;5023812;28;20029;-68
2023/03/07 00:26:21;;;;;;;18.80;3.28;;;;;;;;;;5023998;28;20030;-68
2023/03/07 00:28:48;;;;;;;16.67;2.83;;;;;;;;;;5021801;28;20075;-68
2023/03/07 00:31:17;;;;;;;18.27;2.58;;;;;;;;;;5037627;28;20128;-68
2023/03/07 00:33:42;;;;;;;17.67;2.78;;;;;;;;;;5038454;28;20120;-68
2023/03/07 00:36:15;;;;;;;20.38;2.60;;;;;;;;;;5023536;28;20032;-68
2023/03/07 00:38:44;;;;;;;22.00;2.60;;;;;;;;;;5023633;28;20498;-67
2023/03/07 00:41:10;;;;;;;29.75;3.75;;;;;;;;;;5023763;28;20053;-69
2023/03/07 00:43:36;;;;;;;17.52;2.20;;;;;;;;;;5023482;28;20072;-70
2023/03/07 00:46:02;;;;;;;17.50;3.15;;;;;;;;;;5021524;28;20029;-68
2023/03/07 00:48:28;;;;;;;17.08;2.63;;;;;;;;;;5023838;28;20034;-68
2023/03/07 00:50:54;;;;;;;27.73;3.03;;;;;;;;;;5021089;28;20444;-68
2023/03/07 00:53:19;;;;;;;17.17;2.03;;;;;;;;;;5023235;28;20033;-68
2023/03/07 00:55:54;;;;;;;17.70;2.30;;;;;;;;;;5021864;28;20061;-68
2023/03/07 00:58:19;;;;;;;20.92;2.67;;;;;;;;;;5023169;28;20096;-68
2023/03/07 01:00:44;;;;;;;19.85;2.75;;;;;;;;;;5022846;28;20045;-69
2023/03/07 01:03:09;;;;;;;15.95;2.75;;;;;;;;;;5022810;28;20030;-68
2023/03/07 01:05:37;;;;;;;27.73;3.10;;;;;;;;;;5021348;28;20029;-68
2023/03/07 01:08:03;;;;;;;20.60;2.47;;;;;;;;;;5021319;28;20029;-67
2023/03/07 01:10:29;;;;;;;22.55;2.22;;;;;;;;;;5021619;28;20516;-69
2023/03/07 01:12:54;;;;;;;19.35;2.58;;;;;;;;;;5022824;28;20343;-67
2023/03/07 01:15:19;;;;;;;26.05;3.65;;;;;;;;;;5023180;28;20163;-68
2023/03/07 01:17:45;;;;;;;17.45;2.17;;;;;;;;;;5020974;28;20056;-69
2023/03/07 01:20:10;;;;;;;24.63;3.35;;;;;;;;;;5023058;28;20026;-69
2023/03/07 01:22:36;;;;;;;21.40;2.70;;;;;;;;;;5020658;28;20025;-68
2023/03/07 01:25:01;;;;;;;18.75;3.05;;;;;;;;;;5022743;28;20525;-69
2023/03/07 01:27:28;;;;;;;21.88;2.83;;;;;;;;;;5019469;28;20085;-69
2023/03/07 01:29:54;;;;;;;25.25;3.05;;;;;;;;;;5003066;28;20033;-69
2023/03/07 01:32:19;;;;;;;31.17;3.47;;;;;;;;;;5002690;28;20107;-69
2023/03/07 01:34:44;;;;;;;20.45;3.20;;;;;;;;;;5003293;28;20037;-69
2023/03/07 01:37:10;;;;;;;28.25;2.67;;;;;;;;;;5002790;28;20482;-69
2023/03/07 01:39:35;;;;;;;15.70;2.13;;;;;;;;;;5003657;28;20109;-69
2023/03/07 01:42:00;;;;;;;22.42;3.00;;;;;;;;;;5003009;28;20112;-69
2023/03/07 01:44:25;;;;;;;18.60;2.47;;;;;;;;;;5001281;28;20034;-70
2023/03/07 01:46:55;;;;;;;26.98;2.67;;;;;;;;;;5012268;28;20493;-68
2023/03/07 01:49:29;;;;;;;27.92;3.50;;;;;;;;;;5021221;28;20032;-68
2023/03/07 01:52:06;;;;;;;20.92;3.17;;;;;;;;;;5022526;28;20517;-68
2023/03/07 01:54:36;;;;;;;29.48;2.88;;;;;;;;;;5022305;28;20030;-71
2023/03/07 01:57:03;;;;;;;18.50;2.72;;;;;;;;;;5022400;28;20116;-68
2023/03/07 01:59:30;;;;;;;17.58;3.65;;;;;;;;;;5022663;28;20033;-68
2023/03/07 02:01:58;;;;;;;20.00;2.40;;;;;;;;;;5023598;28;20176;-68
2023/03/07 02:04:27;;;;;;;19.98;2.22;;;;;;;;;;5024848;28;20613;-68
2023/03/07 02:06:53;;;;;;;22.45;2.67;;;;;;;;;;5027033;28;20493;-69
2023/03/07 02:09:20;;;;;;;21.83;2.80;;;;;;;;;;5026423;28;20053;-69
2023/03/07 02:11:45;;;;;;;14.48;2.40;;;;;;;;;;5024403;28;20461;-68
2023/03/07 02:14:10;;;;;;;18.40;2.25;;;;;;;;;;5026218;28;20025;-69
2023/03/07 02:16:37;;;;;;;14.05;2.38;;;;;;;;;;5007831;28;20041;-68
2023/03/07 02:19:06;;;;;;;21.45;2.67;;;;;;;;;;5026592;28;20163;-68
2023/03/07 02:21:50;;;;;;;16.10;2.13;;;;;;;;;;5025756;28;20031;-69
2023/03/07 02:24:25;;;;;;;23.15;2.50;;;;;;;;;;5024531;28;20033;-68
2023/03/07 02:26:52;;;;;;;14.95;2.22;;;;;;;;;;5023884;28;20555;-68
2023/03/07 02:29:19;;;;;;;14.65;1.77;;;;;;;;;;5025916;28;20099;-68
2023/03/07 02:31:47;;;;;;;12.32;3.35;;;;;;;;;;5008562;28;20044;-68
2023/03/07 02:34:17;;;;;;;16.63;2.00;;;;;;;;;;5026258;28;20033;-68
2023/03/07 02:36:43;;;;;;;13.80;1.80;;;;;;;;;;5025820;28;20087;-68
2023/03/07 02:39:08;;;;;;;12.05;2.60;;;;;;;;;;5026216;28;20030;-68
2023/03/07 02:41:34;;;;;;;19.48;1.90;;;;;;;;;;5023747;28;20120;-68
2023/03/07 02:43:59;;;;;;;15.20;1.70;;;;;;;;;;5057756;28;20294;-70
2023/03/07 02:46:24;;;;;;;12.25;2.13;;;;;;;;;;5031296;28;20112;-68
2023/03/07 02:48:50;;;;;;;10.23;1.88;;;;;;;;;;5045466;28;20021;-68
2023/03/07 02:51:15;;;;;;;16.33;1.85;;;;;;;;;;5043514;28;20075;-68
2023/03/07 02:53:40;;;;;;;11.60;1.90;;;;;;;;;;5043875;28;20025;-68
2023/03/07 02:56:08;;;;;;;14.80;2.53;;;;;;;;;;5044304;28;20466;-68
2023/03/07 02:58:33;;;;;;;15.20;2.00;;;;;;;;;;5044500;28;20474;-68
2023/03/07 03:00:59;;;;;;;19.83;2.70;;;;;;;;;;5046015;28;20047;-69
2023/03/07 03:03:26;;;;;;;15.35;2.00;;;;;;;;;;5043703;28;20029;-68
2023/03/07 03:05:54;;;;;;;11.80;2.00;;;;;;;;;;5045603;28;20106;-67
2023/03/07 03:08:19;;;;;;;16.20;2.10;;;;;;;;;;5043502;28;20029;-69
2023/03/07 03:10:44;;;;;;;16.95;2.10;;;;;;;;;;5045209;28;20032;-68
2023/03/07 03:13:12;;;;;;;16.80;2.10;;;;;;;;;;5023998;28;20533;-68
2023/03/07 03:15:37;;;;;;;15.07;2.13;;;;;;;;;;5025145;28;20045;-66
2023/03/07 03:18:05;;;;;;;17.98;2.85;;;;;;;;;;5025289;28;20037;-69
2023/03/07 03:20:30;;;;;;;20.75;3.00;;;;;;;;;;5025259;28;20018;-67
2023/03/07 03:22:55;;;;;;;16.48;2.13;;;;;;;;;;5025081;28;20033;-68
2023/03/07 03:25:22;;;;;;;13.55;1.73;;;;;;;;;;5023825;28;20083;-68
2023/03/07 03:27:47;;;;;;;14.50;2.63;;;;;;;;;;5010210;28;20034;-69
2023/03/07 03:30:13;;;;;;;16.63;2.08;;;;;;;;;;5003896;28;20026;-70
2023/03/07 03:32:38;;;;;;;15.73;2.42;;;;;;;;;;5000479;28;20515;-69
2023/03/07 03:35:04;;;;;;;17.30;2.58;;;;;;;;;;4997096;28;20065;-68
2023/03/07 03:37:30;;;;;;;10.10;2.25;;;;;;;;;;5016797;28;20041;-69
2023/03/07 03:39:55;;;;;;;17.25;2.03;;;;;;;;;;4983768;28;20034;-69
2023/03/07 03:42:20;;;;;;;13.90;1.95;;;;;;;;;;4983440;28;20034;-69
2023/03/07 03:44:46;;;;;;;20.42;2.38;;;;;;;;;;4984108;28;20030;-69
2023/03/07 03:47:12;;;;;;;13.32;1.80;;;;;;;;;;5009462;28;20501;-69
2023/03/07 03:49:37;;;;;;;21.83;2.00;;;;;;;;;;5023603;28;20033;-69
2023/03/07 03:52:03;;;;;;;24.38;2.53;;;;;;;;;;5024959;28;20041;-68
2023/03/07 03:54:29;;;;;;;13.30;2.08;;;;;;;;;;5023165;28;20034;-68
2023/03/07 03:56:57;;;;;;;12.63;1.98;;;;;;;;;;5024493;28;20037;-69
2023/03/07 03:59:22;;;;;;;13.05;1.75;;;;;;;;;;5023155;28;20040;-69
2023/03/07 04:01:47;;;;;;;13.88;2.30;;;;;;;;;;5022508;28;20292;-70
2023/03/07 04:04:13;;;;;;;18.73;2.20;;;;;;;;;;5024522;28;20037;-69
2023/03/07 04:06:38;;;;;;;16.92;2.30;;;;;;;;;;5022453;28;20112;-68
2023/03/07 04:09:04;;;;;;;15.65;2.38;;;;;;;;;;5024318;28;20037;-69
2023/03/07 04:11:31;;;;;;;13.82;2.00;;;;;;;;;;5024229;28;20120;-68
2023/03/07 04:13:58;;;;;;;13.00;1.90;;;;;;;;;;5024554;28;20531;-67
2023/03/07 04:16:23;;;;;;;12.38;1.75;;;;;;;;;;5024776;28;20104;-67
2023/03/07 04:18:51;;;;;;;12.52;2.00;;;;;;;;;;5022807;28;20116;-68
2023/03/07 04:21:17;;;;;;;19.05;3.08;;;;;;;;;;5023959;28;20033;-67
2023/03/07 04:23:42;;;;;;;10.15;1.90;;;;;;;;;;5022072;28;20067;-67
2023/03/07 04:26:13;;;;;;;17.33;2.55;;;;;;;;;;5014101;28;20471;-68
2023/03/07 04:28:45;;;;;;;13.98;1.60;;;;;;;;;;4984301;28;20088;-70
2023/03/07 04:31:20;;;;;;;10.65;1.55;;;;;;;;;;4982372;28;20086;-69
2023/03/07 04:33:46;;;;;;;9.38;1.45;;;;;;;;;;4984200;28;20022;-69
2023/03/07 04:36:14;;;;;;;13.25;2.10;;;;;;;;;;4984936;28;20038;-68
2023/03/07 04:38:40;;;;;;;14.73;2.20;;;;;;;;;;4982669;28;20311;-70
2023/03/07 04:41:06;;;;;;;6.80;1.70;;;;;;;;;;4984595;28;20035;-67
2023/03/07 04:43:31;;;;;;;10.30;1.70;;;;;;;;;;4984822;28;20052;-67
2023/03/07 04:45:57;;;;;;;15.80;2.05;;;;;;;;;;4988253;28;20053;-68
2023/03/07 04:48:22;;;;;;;12.98;2.00;;;;;;;;;;5023201;28;20544;-68
2023/03/07 04:50:50;;;;;;;10.52;1.45;;;;;;;;;;5023350;28;20034;-67
2023/03/07 04:53:16;;;;;;;15.40;2.35;;;;;;;;;;5022949;28;20041;-67
2023/03/07 04:55:41;;;;;;;14.32;1.88;;;;;;;;;;5021575;28;20030;-67
2023/03/07 04:58:11;;;;;;;9.32;1.63;;;;;;;;;;5021116;28;20056;-69
2023/03/07 05:00:37;;;;;;;13.80;2.05;;;;;;;;;;5023003;28;20040;-67
2023/03/07 05:03:02;;;;;;;16.55;2.25;;;;;;;;;;5023280;28;20038;-67
2023/03/07 05:05:27;;;;;;;16.40;2.30;;;;;;;;;;5021603;28;20025;-67
2023/03/07 05:07:52;;;;;;;19.48;2.60;;;;;;;;;;5023450;28;20394;-67
2023/03/07 05:10:20;;;;;;;19.20;2.20;;;;;;;;;;5005390;28;20544;-69
2023/03/07 05:12:45;;;;;;;12.82;1.80;;;;;;;;;;5023464;28;20033;-68
2023/03/07 05:15:10;;;;;;;14.18;1.60;;;;;;;;;;5022699;28;20037;-67
2023/03/07 05:17:36;;;;;;;7.95;1.55;;;;;;;;;;5021306;28;20037;-67
2023/03/07 05:20:02;;;;;;;14.25;2.58;;;;;;;;;;5004600;28;20453;-67
2023/03/07 05:22:28;;;;;;;18.23;1.60;;;;;;;;;;5022852;28;20033;-66
2023/03/07 05:24:55;;;;;;;17.75;2.00;;;;;;;;;;5022808;28;20089;-67
2023/03/07 05:27:20;;;;;;;15.82;2.72;;;;;;;;;;5003200;28;20050;-67
2023/03/07 05:29:46;;;;;;;13.52;1.70;;;;;;;;;;5002020;28;20049;-66
2023/03/07 05:32:11;;;;;;;16.85;2.08;;;;;;;;;;5003300;28;20100;-67
2023/03/07 05:34:39;;;;;;;14.27;2.28;;;;;;;;;;5018423;28;20555;-66
2023/03/07 05:37:04;;;;;;;14.82;1.83;;;;;;;;;;5033653;28;20034;-68
2023/03/07 05:39:30;;;;;;;13.25;1.92;;;;;;;;;;5003678;28;20095;-67
2023/03/07 05:41:55;;;;;;;27.23;2.85;;;;;;;;;;5001229;28;20034;-68
2023/03/07 05:44:20;;;;;;;11.68;1.73;;;;;;;;;;5003383;28;20030;-67
2023/03/07 05:46:46;;;;;;;15.00;2.13;;;;;;;;;;5011493;28;20152;-67
2023/03/07 05:49:11;;;;;;;13.45;1.90;;;;;;;;;;5004932;28;20029;-68
2023/03/07 05:51:36;;;;;;;21.30;2.33;;;;;;;;;;5021035;28;20083;-68
2023/03/07 05:54:01;;;;;;;13.98;2.22;;;;;;;;;;5022545;28;20063;-67
2023/03/07 05:56:27;;;;;;;13.85;1.83;;;;;;;;;;5022916;28;20033;-68
2023/03/07 05:58:56;;;;;;;9.90;2.25;;;;;;;;;;5023109;28;20391;-68
2023/03/07 06:01:24;;;;;;;13.82;2.00;;;;;;;;;;5022731;28;20124;-69
2023/03/07 06:03:49;;;;;;;17.10;2.40;;;;;;;;;;5022506;28;20104;-67
2023/03/07 06:06:15;;;;;;;17.05;2.53;;;;;;;;;;5020848;28;20029;-68
2023/03/07 06:08:40;;;;;;;21.33;2.42;;;;;;;;;;5022863;28;20705;-68
2023/03/07 06:11:05;;;;;;;14.90;2.42;;;;;;;;;;5022099;28;20125;-68
2023/03/07 06:13:30;;;;;;;15.45;2.85;;;;;;;;;;5020785;28;20095;-67
2023/03/07 06:15:56;;;;;;;22.00;3.15;;;;;;;;;;5021955;28;20284;-68
2023/03/07 06:18:22;;;;;;;14.45;1.90;;;;;;;;;;5022371;28;20103;-67
2023/03/07 06:20:57;;;;;;;15.07;2.35;;;;;;;;;;5020702;28;20037;-67
2023/03/07 06:23:22;;;;;;;10.68;1.58;;;;;;;;;;5022814;28;20570;-67
2023/03/07 06:25:50;;;;;;;14.48;1.80;;;;;;;;;;5008755;28;20136;-67
2023/03/07 06:28:16;;;;;;;24.13;2.63;;;;;;;;;;4983069;28;20561;-67
2023/03/07 06:30:41;;;;;;;10.48;1.50;;;;;;;;;;4983299;28;20034;-67
2023/03/07 06:33:06;;;;;;;12.57;1.60;;;;;;;;;;4997239;28;20061;-68
2023/03/07 06:35:32;;;;;;;10.70;1.60;;;;;;;;;;4983265;28;20384;-67
2023/03/07 06:37:57;;;;;;;20.33;2.33;;;;;;;;;;4982768;28;20113;-67
2023/03/07 06:40:22;;;;;;;21.10;2.35;;;;;;;;;;4997941;28;20050;-67
2023/03/07 06:42:47;;;;;;;16.40;2.85;;;;;;;;;;4982539;28;20062;-66
2023/03/07 06:45:13;;;;;;;13.77;2.20;;;;;;;;;;4981073;28;20035;-67
2023/03/07 06:47:38;;;;;;;15.52;2.65;;;;;;;;;;5014466;28;20397;-69
2023/03/07 06:50:03;;;;;;;12.85;2.22;;;;;;;;;;5026364;28;20041;-68
2023/03/07 06:52:31;;;;;;;21.90;2.45;;;;;;;;;;5023277;28;20090;-68
2023/03/07 06:54:56;;;;;;;12.07;2.92;;;;;;;;;;5025435;28;20056;-68
2023/03/07 06:57:21;;;;;;;16.85;2.40;;;;;;;;;;5025052;28;20478;-69
2023/03/07 06:59:47;;;;;;;24.20;3.25;;;;;;;;;;5007284;28;20029;-68
2023/03/07 07:02:13;;;;;;;26.10;3.22;;;;;;;;;;5023275;28;20029;-67
2023/03/07 07:04:38;;;;;;;22.63;2.47;;;;;;;;;;5025438;28;20025;-67
2023/03/07 07:07:08;;;;;;;18.77;2.45;;;;;;;;;;5025325;28;20033;-69
2023/03/07 07:09:33;;;;;;;20.63;2.50;;;;;;;;;;5025069;28;20042;-69
2023/03/07 07:12:01;;;;;;;17.33;2.88;;;;;;;;;;5025549;28;20056;-67
2023/03/07 07:14:26;;;;;;;23.55;3.05;;;;;;;;;;5023971;28;20022;-68
2023/03/07 07:16:54;;;;;;;18.48;2.65;;;;;;;;;;5023804;28;20032;-67
2023/03/07 07:19:21;;;;;;;27.15;3.45;;;;;;;;;;5025018;28;20164;-68
2023/03/07 07:21:47;;;;;;;24.85;3.13;;;;;;;;;;5024637;28;20048;-67
2023/03/07 07:24:14;;;;;;;13.30;2.30;;;;;;;;;;5025069;28;20030;-68
2023/03/07 07:26:40;;;;;;;25.60;3.05;;;;;;;;;;4983611;28;20524;-68
2023/03/07 07:29:07;;;;;;;15.80;1.90;;;;;;;;;;4984137;28;20034;-67
2023/03/07 07:31:32;;;;;;;13.98;2.38;;;;;;;;;;4984887;28;20510;-68
2023/03/07 07:33:58;;;;;;;21.27;3.60;;;;;;;;;;4984294;28;20031;-70
2023/03/07 07:36:24;;;;;;;18.58;2.53;;;;;;;;;;4983863;28;20027;-69
2023/03/07 07:38:49;;;;;;;18.00;2.25;;;;;;;;;;4985905;28;20030;-67
2023/03/07 07:41:15;;;;;;;18.40;2.67;;;;;;;;;;4985514;28;20030;-68
2023/03/07 07:43:40;;;;;;;21.65;2.70;;;;;;;;;;4984069;28;20093;-67
2023/03/07 07:46:05;;;;;;;16.40;2.65;;;;;;;;;;4991294;28;20035;-67
2023/03/07 07:48:33;;;;;;;19.52;2.47;;;;;;;;;;5023144;28;20498;-67
2023/03/07 07:50:59;;;;;;;14.60;2.13;;;;;;;;;;5024369;28;20026;-67
2023/03/07 07:53:25;;;;;;;20.15;2.85;;;;;;;;;;5024864;28;20052;-67
2023/03/07 07:55:50;;;;;;;12.40;1.80;;;;;;;;;;5024473;28;20033;-69
2023/03/07 07:58:15;;;;;;;18.63;2.55;;;;;;;;;;5024851;28;20029;-68
2023/03/07 08:00:40;;;;;;;12.90;2.30;;;;;;;;;;5022007;28;20478;-67
2023/03/07 08:03:06;;;;;;;15.82;2.50;;;;;;;;;;5024829;28;20053;-68
2023/03/07 08:05:31;;;;;;;8.27;1.88;;;;;;;;;;5024577;28;20091;-69
2023/03/07 08:07:56;;;;;;;17.33;2.55;;;;;;;;;;5023302;28;20508;-69
2023/03/07 08:10:21;;;;;;;24.17;2.95;;;;;;;;;;5024179;28;20029;-68
2023/03/07 08:12:50;;;;;;;21.27;3.10;;;;;;;;;;5022921;28;20033;-69
2023/03/07 08:15:15;;;;;;;18.75;3.10;;;;;;;;;;5022333;28;20052;-70
2023/03/07 08:17:41;;;;;;;16.55;2.67;;;;;;;;;;5022660;28;20494;-69
2023/03/07 08:20:08;;;;;;;18.80;2.45;;;;;;;;;;5023717;28;20033;-69
2023/03/07 08:22:36;;;;;;;18.75;2.60;;;;;;;;;;5023693;28;20037;-68
2023/03/07 08:25:03;;;;;;;16.00;2.28;;;;;;;;;;5013431;28;20041;-69
2023/03/07 08:27:28;;;;;;;20.58;2.50;;;;;;;;;;5003823;28;20077;-68
2023/03/07 08:29:54;;;;;;;21.33;2.47;;;;;;;;;;5004292;28;20038;-69
2023/03/07 08:32:19;;;;;;;20.08;2.45;;;;;;;;;;5004556;28;20045;-69
2023/03/07 08:34:44;;;;;;;21.30;2.88;;;;;;;;;;5004462;28;20034;-69
2023/03/07 08:37:10;;;;;;;22.00;2.92;;;;;;;;;;5035573;28;20030;-68
2023/03/07 08:39:35;;;;;;;17.63;2.45;;;;;;;;;;5035706;28;20096;-70
2023/03/07 08:42:00;;;;;;;19.30;2.33;;;;;;;;;;5002129;28;20033;-69
2023/03/07 08:44:29;;;;;;;18.00;2.28;;;;;;;;;;5002238;28;20096;-68
2023/03/07 08:46:54;;;;;;;26.92;2.58;;;;;;;;;;5013094;28;20037;-67
2023/03/07 08:49:19;;;;;;;22.85;3.10;;;;;;;;;;5005216;28;20570;-69
2023/03/07 08:51:47;;;;;;;20.30;2.63;;;;;;;;;;5021594;28;20056;-68
2023/03/07 08:54:12;;;;;;;25.42;2.60;;;;;;;;;;5023415;28;20048;-67
2023/03/07 08:56:38;;;;;;;14.45;2.25;;;;;;;;;;5023856;28;20026;-69
2023/03/07 08:59:03;;;;;;;23.67;2.28;;;;;;;;;;5022257;28;20041;-69
2023/03/07 09:01:28;;;;;;;14.35;1.52;;;;;;;;;;5022744;28;20030;-70
2023/03/07 09:03:54;;;;;;;16.73;2.35;;;;;;;;;;5023460;28;20030;-68
2023/03/07 09:06:19;;;;;;;18.23;2.60;;;;;;;;;;5023081;28;20032;-68
2023/03/07 09:08:46;;;;;;;16.90;1.67;;;;;;;;;;5023443;28;20120;-68
2023/03/07 09:11:11;;;;;;;20.23;2.78;;;;;;;;;;5020717;28;20021;-69
2023/03/07 09:13:36;;;;;;;25.05;3.13;;;;;;;;;;5021289;28;20047;-69
2023/03/07 09:16:05;;;;;;;19.83;2.40;;;;;;;;;;5022906;28;20025;-68
2023/03/07 09:18:31;;;;;;;13.57;2.10;;;;;;;;;;5023058;28;20037;-70
2023/03/07 09:21:00;;;;;;;22.50;3.22;;;;;;;;;;5023617;28;20041;-68
2023/03/07 09:23:25;;;;;;;13.15;2.25;;;;;;;;;;5021623;28;20034;-70
2023/03/07 09:25:53;;;;;;;18.80;2.47;;;;;;;;;;5002034;28;20037;-68
2023/03/07 09:28:18;;;;;;;24.85;2.42;;;;;;;;;;5003198;28;20038;-68
2023/03/07 09:30:43;;;;;;;14.13;2.58;;;;;;;;;;5003506;28;20505;-70
2023/03/07 09:33:11;;;;;;;17.95;2.60;;;;;;;;;;5002796;28;20052;-69
2023/03/07 09:35:38;;;;;;;14.45;2.42;;;;;;;;;;5003255;28;20479;-69
2023/03/07 09:38:05;;;;;;;18.17;2.80;;;;;;;;;;5003344;28;20505;-69
2023/03/07 09:40:30;;;;;;;12.48;1.98;;;;;;;;;;5001318;28;20363;-69
2023/03/07 09:43:02;;;;;;;18.15;2.75;;;;;;;;;;5003081;28;20071;-68
2023/03/07 09:45:30;;;;;;;10.25;1.55;;;;;;;;;;5018067;28;20030;-68
2023/03/07 09:47:58;;;;;;;17.02;3.03;;;;;;;;;;5021172;28;20504;-68
2023/03/07 09:50:35;;;;;;;20.75;1.92;;;;;;;;;;5023387;28;20520;-68
2023/03/07 09:53:05;;;;;;;19.50;2.55;;;;;;;;;;5020958;28;20394;-68
2023/03/07 09:55:31;;;;;;;18.50;2.22;;;;;;;;;;5022500;28;20052;-69
2023/03/07 09:58:03;;;;;;;8.60;1.02;;;;;;;;;;5022538;28;20116;-67
2023/03/07 10:00:44;;;;;;;21.02;3.22;;;;;;;;;;5022295;28;20029;-68
2023/03/07 10:03:17;;;;;;;10.88;1.52;;;;;;;;;;5022566;28;20022;-68
2023/03/07 10:05:50;;;;;;;15.48;2.22;;;;;;;;;;5022694;28;20133;-68
2023/03/07 10:08:33;;;;;;;21.63;2.65;;;;;;;;;;5022268;28;20080;-68
2023/03/07 10:11:08;;;;;;;18.83;1.95;;;;;;;;;;5020830;28;20018;-69
2023/03/07 10:13:45;;;;;;;8.10;1.17;;;;;;;;;;5022665;28;20124;-69
2023/03/07 10:16:10;;;;;;;6.82;1.27;;;;;;;;;;5022910;28;20029;-69
2023/03/07 10:18:46;;;;;;;16.65;1.85;;;;;;;;;;5022842;28;20380;-67
2023/03/07 10:21:11;;;;;;;12.23;1.83;;;;;;;;;;5040499;28;20037;-69
2023/03/07 10:23:40;;;;;;;15.23;2.35;;;;;;;;;;5036525;28;20080;-70
2023/03/07 10:26:10;;;;;;;14.05;2.03;;;;;;;;;;5025641;28;20053;-71
2023/03/07 10:28:41;;;;;;;13.27;1.90;;;;;;;;;;5020206;28;20037;-69
2023/03/07 10:31:21;;;;;;;12.18;1.75;;;;;;;;;;5020825;28;20045;-70
2023/03/07 10:33:47;;;;;;;15.60;2.03;;;;;;;;;;5021414;28;20124;-70
2023/03/07 10:36:16;;;;;;;12.07;2.13;;;;;;;;;;5025775;28;20657;-69
2023/03/07 10:38:48;;;;;;;12.48;1.80;;;;;;;;;;5057576;28;20095;-70
2023/03/07 10:41:18;;;;;;;14.05;1.85;;;;;;;;;;5024661;28;20504;-70
2023/03/07 10:43:44;;;;;;;14.25;1.67;;;;;;;;;;5025700;28;20378;-69
2023/03/07 10:46:10;;;;;;;12.55;2.75;;;;;;;;;;5025810;28;20083;-69
2023/03/07 10:48:38;;;;;;;16.60;1.73;;;;;;;;;;5025536;28;20025;-69
2023/03/07 10:51:11;;;;;;;13.45;1.77;;;;;;;;;;5026146;28;20029;-69
2023/03/07 10:53:39;;;;;;;23.60;2.33;;;;;;;;;;5024060;28;20116;-69
2023/03/07 10:56:22;;;;;;;10.38;1.75;;;;;;;;;;5023470;28;20036;-69
2023/03/07 10:59:01;;;;;;;11.93;1.80;;;;;;;;;;5025231;28;20037;-69
2023/03/07 11:01:27;;;;;;;15.38;2.22;;;;;;;;;;5025391;28;20455;-70
2023/03/07 11:03:57;;;;;;;12.00;1.83;;;;;;;;;;5023425;28;20036;-68
2023/03/07 11:06:27;;;;;;;11.32;1.58;;;;;;;;;;5025907;28;20064;-69
2023/03/07 11:08:52;;;;;;;13.35;1.90;;;;;;;;;;5006775;28;20038;-69
2023/03/07 11:11:36;;;;;;;16.25;1.98;;;;;;;;;;5025486;28;20029;-69
2023/03/07 11:14:09;;;;;;;13.30;1.70;;;;;;;;;;5007148;28;20042;-67
2023/03/07 11:16:46;;;;;;;18.08;2.90;;;;;;;;;;5020911;28;20084;-68
2023/03/07 11:19:30;;;;;;;13.30;1.95;;;;;;;;;;5024977;28;20444;-69
2023/03/07 11:21:56;;;;;;;15.25;2.13;;;;;;;;;;5023267;28;20387;-68
2023/03/07 11:24:22;;;;;;;18.38;2.50;;;;;;;;;;5025003;28;20385;-67
2023/03/07 11:26:54;;;;;;;11.60;1.73;;;;;;;;;;5023238;28;20121;-69
2023/03/07 11:29:19;;;;;;;14.73;1.65;;;;;;;;;;5025008;28;20030;-68
2023/03/07 11:31:56;;;;;;;13.07;2.30;;;;;;;;;;5025671;28;20125;-69
2023/03/07 11:34:33;;;;;;;8.10;2.03;;;;;;;;;;5023863;28;20445;-68
2023/03/07 11:37:18;;;;;;;13.93;1.52;;;;;;;;;;5022733;28;20075;-69
2023/03/07 11:40:00;;;;;;;15.73;2.40;;;;;;;;;;5022847;28;20121;-68
2023/03/07 11:42:30;;;;;;;17.20;2.80;;;;;;;;;;5023404;28;20161;-67
2023/03/07 11:45:14;;;;;;;14.27;1.90;;;;;;;;;;5023863;28;20030;-67
2023/03/07 11:47:42;;;;;;;22.95;2.58;;;;;;;;;;5040731;28;20033;-68
2023/03/07 11:50:13;;;;;;;15.10;2.30;;;;;;;;;;5044295;28;20395;-68
2023/03/07 11:52:50;;;;;;;16.40;2.13;;;;;;;;;;5024213;28;20345;-69
2023/03/07 11:55:18;;;;;;;23.30;2.65;;;;;;;;;;5024645;28;20040;-69
2023/03/07 11:57:52;;;;;;;26.08;2.60;;;;;;;;;;5024963;28;20494;-69
2023/03/07 12:00:20;;;;;;;21.27;2.70;;;;;;;;;;5022354;28;20029;-68
2023/03/07 12:03:17;;;;;;;12.75;1.90;;;;;;;;;;5024284;28;20022;-68
2023/03/07 12:05:45;;;;;;;11.98;2.70;;;;;;;;;;5011896;28;20033;-68
2023/03/07 12:08:23;;;;;;;14.88;1.80;;;;;;;;;;5023958;28;20036;-68
2023/03/07 12:10:51;;;;;;;17.85;2.40;;;;;;;;;;5024250;28;20040;-68
2023/03/07 12:13:53;;;;;;;16.73;2.05;;;;;;;;;;5024036;28;20048;-67
2023/03/07 12:16:26;;;;;;;14.35;2.00;;;;;;;;;;4991495;28;20133;-68
2023/03/07 12:19:08;;;;;;;10.63;2.20;;;;;;;;;;5024145;28;20045;-67
2023/03/07 12:21:33;;;;;;;5.88;1.42;;;;;;;;;;5022198;28;20461;-67
2023/03/07 12:24:01;;;;;;;8.60;1.52;;;;;;;;;;5004624;28;20026;-68
2023/03/07 12:26:31;;;;;;;12.35;1.77;;;;;;;;;;5002273;28;20458;-69
2023/03/07 12:29:02;;;;;;;21.83;2.88;;;;;;;;;;5004188;28;20384;-67
2023/03/07 12:31:38;;;;;;;18.98;2.40;;;;;;;;;;5003944;28;20094;-69
2023/03/07 12:34:08;;;;;;;18.08;2.70;;;;;;;;;;5004025;28;20033;-69
2023/03/07 12:36:45;;;;;;;14.25;2.60;;;;;;;;;;5003701;28;20109;-70
2023/03/07 12:39:20;;;;;;;13.05;2.03;;;;;;;;;;5004105;28;20022;-70
2023/03/07 12:41:51;;;;;;;14.32;1.77;;;;;;;;;;5004171;28;20031;-68
2023/03/07 12:44:39;;;;;;;10.70;2.08;;;;;;;;;;5001767;28;20022;-70
2023/03/07 12:47:14;;;;;;;17.30;1.88;;;;;;;;;;5013670;28;20030;-69
2023/03/07 12:49:52;;;;;;;20.67;2.45;;;;;;;;;;5023308;28;20033;-68
2023/03/07 12:52:37;;;;;;;16.15;2.85;;;;;;;;;;5005246;28;20040;-67
2023/03/07 12:55:15;;;;;;;24.25;3.83;;;;;;;;;;5001412;28;20083;-69
2023/03/07 12:57:49;;;;;;;22.85;2.67;;;;;;;;;;5041470;28;20110;-68
2023/03/07 13:00:16;;;;;;;21.92;3.05;;;;;;;;;;5043088;28;20029;-68
2023/03/07 13:02:54;;;;;;;14.00;2.08;;;;;;;;;;5042729;28;20098;-69
2023/03/07 13:05:20;;;;;;;15.93;2.20;;;;;;;;;;5041493;28;20025;-69
2023/03/07 13:07:46;;;;;;;15.73;3.15;;;;;;;;;;5041676;28;20087;-69
2023/03/07 13:10:15;;;;;;;11.63;1.80;;;;;;;;;;5042748;28;20021;-67
2023/03/07 13:12:40;;;;;;;23.27;2.80;;;;;;;;;;5043248;28;20041;-68
2023/03/07 13:15:06;;;;;;;17.67;2.55;;;;;;;;;;5041642;28;20489;-69
2023/03/07 13:17:33;;;;;;;12.50;1.80;;;;;;;;;;5042986;28;20029;-67
2023/03/07 13:19:59;;;;;;;13.38;1.60;;;;;;;;;;5042986;28;20269;-68
2023/03/07 13:22:24;;;;;;;15.10;1.95;;;;;;;;;;5030543;28;20037;-68
2023/03/07 13:24:50;;;;;;;12.50;1.88;;;;;;;;;;5022884;28;20026;-68
2023/03/07 13:27:20;;;;;;;14.65;2.17;;;;;;;;;;5020849;28;20406;-67
2023/03/07 13:30:04;;;;;;;18.48;1.90;;;;;;;;;;5021016;28;20065;-67
2023/03/07 13:32:47;;;;;;;17.52;2.33;;;;;;;;;;5022664;28;20041;-68
2023/03/07 13:35:32;;;;;;;19.40;1.85;;;;;;;;;;5022598;28;20034;-68
2023/03/07 13:38:02;;;;;;;17.30;1.70;;;;;;;;;;5023239;28;20072;-68
2023/03/07 13:40:33;;;;;;;13.43;2.67;;;;;;;;;;5022941;28;20483;-66
2023/03/07 13:42:58;;;;;;;13.63;2.35;;;;;;;;;;5022898;28;20329;-68
2023/03/07 13:45:38;;;;;;;17.65;3.65;;;;;;;;;;5022353;28;20037;-68
2023/03/07 13:48:04;;;;;;;22.52;2.58;;;;;;;;;;5041506;28;20033;-68
2023/03/07 13:50:33;;;;;;;12.23;1.70;;;;;;;;;;5042980;28;20043;-67
2023/03/07 13:53:02;;;;;;;20.08;2.85;;;;;;;;;;5039278;28;20063;-68
2023/03/07 13:55:31;;;;;;;14.68;2.30;;;;;;;;;;5042517;28;20037;-68
2023/03/07 13:57:59;;;;;;;17.98;2.65;;;;;;;;;;5041706;28;20037;-69
2023/03/07 14:00:28;;;;;;;13.40;2.15;;;;;;;;;;5046812;28;20113;-67
2023/03/07 14:02:55;;;;;;;12.05;1.60;;;;;;;;;;5026804;28;20037;-66
2023/03/07 14:05:21;;;;;;;17.77;2.10;;;;;;;;;;5027313;28;20402;-67
2023/03/07 14:07:50;;;;;;;20.17;2.85;;;;;;;;;;5024451;28;20117;-68
2023/03/07 14:10:15;;;;;;;6.70;1.20;;;;;;;;;;5026595;28;20095;-68
2023/03/07 14:13:04;;;;;;;8.80;1.35;;;;;;;;;;5026472;28;20441;-68
2023/03/07 14:15:47;;;;;;;13.75;1.88;;;;;;;;;;5026538;28;20076;-67
2023/03/07 14:18:18;;;;;;;17.48;1.83;;;;;;;;;;5024325;28;20112;-67
2023/03/07 14:21:05;;;;;;;15.13;2.00;;;;;;;;;;5021347;28;20034;-68
2023/03/07 14:23:50;;;;;;;13.73;2.45;;;;;;;;;;5006245;28;20030;-68
2023/03/07 14:26:18;;;;;;;13.63;1.80;;;;;;;;;;5006270;28;20062;-67
2023/03/07 14:28:47;;;;;;;10.18;1.70;;;;;;;;;;5006711;28;20089;-68
2023/03/07 14:31:20;;;;;;;14.93;2.22;;;;;;;;;;5021369;28;20477;-68
2023/03/07 14:33:46;;;;;;;10.52;2.30;;;;;;;;;;5006141;28;20038;-67
2023/03/07 14:36:18;;;;;;;15.75;2.55;;;;;;;;;;5005092;28;20037;-67
2023/03/07 14:38:45;;;;;;;7.30;1.65;;;;;;;;;;5006288;28;20149;-68